sensor_id;sensor_type;location;lat;lon;timestamp;pressure;altitude;pressure_sealevel;temperature;humidity
11343;BME280;5726;42.160;24.746;2022-11-20T00:01:17;98987.75;;;15.37;100.00
11343;BME280;5726;42.160;24.746;2022-11-20T00:03:44;98994.88;;;15.41;100.00
11343;BME280;5726;42.160;24.746;2022-11-20T00:06:12;99004.25;;;15.24;100.00
11343;BME280;5726;42.160;24.746;2022-11-20T00:08:38;98995.91;;;15.29;100.00
11343;BME280;5726;42.160;24.746;2022-11-20T00:11:05;98984.19;;;15.45;100.00
11343;BME280;5726;42.160;24.746;2022-11-20T00:13:31;99002.63;;;15.43;100.00
11343;BME280;5726;42.160;24.746;2022-11-20T00:15:58;99020.22;;;15.49;100.00
11343;BME280;5726;42.160;24.746;2022-11-20T00:18:24;99002.03;;;15.37;100.00
11343;BME280;5726;42.160;24.746;2022-11-20T00:20:50;99000.88;;;15.27;100.00
11343;BME280;5726;42.160;24.746;2022-11-20T00:23:15;98996.69;;;15.29;100.00
11343;BME280;5726;42.160;24.746;2022-11-20T00:25:40;99001.50;;;15.44;100.00
11343;BME280;5726;42.160;24.746;2022-11-20T00:28:06;98986.66;;;15.18;100.00
11343;BME280;5726;42.160;24.746;2022-11-20T00:30:31;98987.50;;;15.30;100.00
11343;BME280;5726;42.160;24.746;2022-11-20T00:32:56;99001.09;;;15.54;100.00
11343;BME280;5726;42.160;24.746;2022-11-20T00:35:23;99005.13;;;15.48;100.00
11343;BME280;5726;42.160;24.746;2022-11-20T00:37:48;98999.56;;;15.32;100.00
11343;BME280;5726;42.160;24.746;2022-11-20T00:40:13;98997.91;;;15.40;100.00
11343;BME280;5726;42.160;24.746;2022-11-20T00:42:39;98984.06;;;15.41;100.00
11343;BME280;5726;42.160;24.746;2022-11-20T00:45:05;98995.09;;;15.48;100.00
11343;BME280;5726;42.160;24.746;2022-11-20T00:47:30;98998.75;;;15.64;100.00
11343;BME280;5726;42.160;24.746;2022-11-20T00:49:55;98995.19;;;15.40;100.00
11343;BME280;5726;42.160;24.746;2022-11-20T00:52:21;98995.53;;;15.38;100.00
11343;BME280;5726;42.160;24.746;2022-11-20T00:54:46;99001.06;;;15.22;100.00
11343;BME280;5726;42.160;24.746;2022-11-20T00:57:12;98998.78;;;15.44;100.00
11343;BME280;5726;42.160;24.746;2022-11-20T00:59:37;98997.38;;;15.26;100.00
11343;BME280;5726;42.160;24.746;2022-11-20T01:02:02;99000.44;;;15.16;100.00
11343;BME280;5726;42.160;24.746;2022-11-20T01:04:28;98998.22;;;14.98;100.00
11343;BME280;5726;42.160;24.746;2022-11-20T01:06:53;99007.19;;;15.30;100.00
11343;BME280;5726;42.160;24.746;2022-11-20T01:09:19;98998.34;;;15.42;100.00
11343;BME280;5726;42.160;24.746;2022-11-20T01:11:45;98997.75;;;15.16;100.00
11343;BME280;5726;42.160;24.746;2022-11-20T01:14:13;98985.56;;;15.10;100.00
11343;BME280;5726;42.160;24.746;2022-11-20T01:16:44;98993.88;;;15.26;100.00
11343;BME280;5726;42.160;24.746;2022-11-20T01:19:13;98972.16;;;14.82;100.00
11343;BME280;5726;42.160;24.746;2022-11-20T01:21:40;98985.50;;;14.98;100.00
11343;BME280;5726;42.160;24.746;2022-11-20T01:24:08;98972.53;;;15.12;100.00
11343;BME280;5726;42.160;24.746;2022-11-20T01:26:35;98967.31;;;15.28;100.00
11343;BME280;5726;42.160;24.746;2022-11-20T01:29:02;98973.25;;;15.41;100.00
11343;BME280;5726;42.160;24.746;2022-11-20T01:31:33;98955.22;;;15.45;100.00
11343;BME280;5726;42.160;24.746;2022-11-20T01:34:04;98965.66;;;15.35;100.00
11343;BME280;5726;42.160;24.746;2022-11-20T01:36:30;98956.19;;;15.29;100.00
11343;BME280;5726;42.160;24.746;2022-11-20T01:38:59;98957.25;;;15.16;100.00
11343;BME280;5726;42.160;24.746;2022-11-20T01:41:27;98965.22;;;15.33;100.00
11343;BME280;5726;42.160;24.746;2022-11-20T01:44:14;98962.34;;;15.50;100.00
11343;BME280;5726;42.160;24.746;2022-11-20T01:52:05;98937.88;;;15.67;100.00
11343;BME280;5726;42.160;24.746;2022-11-20T01:54:40;98934.25;;;15.75;100.00
11343;BME280;5726;42.160;24.746;2022-11-20T01:57:10;98931.13;;;15.73;100.00
11343;BME280;5726;42.160;24.746;2022-11-20T01:59:42;98930.44;;;15.76;100.00
11343;BME280;5726;42.160;24.746;2022-11-20T02:02:10;98925.47;;;15.66;100.00
11343;BME280;5726;42.160;24.746;2022-11-20T02:04:35;98933.22;;;15.67;100.00
11343;BME280;5726;42.160;24.746;2022-11-20T02:07:02;98941.56;;;15.62;100.00
11343;BME280;5726;42.160;24.746;2022-11-20T02:09:29;98930.88;;;15.66;100.00
11343;BME280;5726;42.160;24.746;2022-11-20T02:11:55;98927.84;;;15.67;100.00
11343;BME280;5726;42.160;24.746;2022-11-20T02:14:22;98915.78;;;15.88;100.00
11343;BME280;5726;42.160;24.746;2022-11-20T02:16:48;98922.22;;;15.84;100.00
11343;BME280;5726;42.160;24.746;2022-11-20T02:19:30;98926.63;;;15.88;100.00
11343;BME280;5726;42.160;24.746;2022-11-20T02:24:35;98925.91;;;15.68;100.00
11343;BME280;5726;42.160;24.746;2022-11-20T02:27:09;98923.56;;;15.78;100.00
11343;BME280;5726;42.160;24.746;2022-11-20T02:29:42;98917.47;;;15.81;100.00
11343;BME280;5726;42.160;24.746;2022-11-20T02:32:28;98901.16;;;15.77;100.00
11343;BME280;5726;42.160;24.746;2022-11-20T02:34:54;98904.31;;;15.79;100.00
11343;BME280;5726;42.160;24.746;2022-11-20T02:37:20;98891.47;;;16.12;100.00
11343;BME280;5726;42.160;24.746;2022-11-20T02:39:48;98886.06;;;16.12;100.00
11343;BME280;5726;42.160;24.746;2022-11-20T02:42:14;98906.34;;;16.06;100.00
11343;BME280;5726;42.160;24.746;2022-11-20T02:44:40;98884.50;;;15.99;100.00
11343;BME280;5726;42.160;24.746;2022-11-20T02:47:05;98900.50;;;15.92;100.00
11343;BME280;5726;42.160;24.746;2022-11-20T02:49:31;98928.78;;;16.07;100.00
11343;BME280;5726;42.160;24.746;2022-11-20T02:51:56;98922.81;;;16.01;100.00
11343;BME280;5726;42.160;24.746;2022-11-20T02:54:22;98916.47;;;16.09;100.00
11343;BME280;5726;42.160;24.746;2022-11-20T02:56:48;98917.16;;;16.18;100.00
11343;BME280;5726;42.160;24.746;2022-11-20T02:59:13;98905.00;;;16.24;100.00
11343;BME280;5726;42.160;24.746;2022-11-20T03:01:38;98905.56;;;16.53;100.00
11343;BME280;5726;42.160;24.746;2022-11-20T03:04:04;98906.47;;;16.45;100.00
11343;BME280;5726;42.160;24.746;2022-11-20T03:06:30;98901.28;;;16.28;100.00
11343;BME280;5726;42.160;24.746;2022-11-20T03:08:55;98894.88;;;16.33;100.00
11343;BME280;5726;42.160;24.746;2022-11-20T03:11:21;98904.56;;;16.10;100.00
11343;BME280;5726;42.160;24.746;2022-11-20T03:13:46;98917.97;;;16.19;100.00
11343;BME280;5726;42.160;24.746;2022-11-20T03:16:14;98919.84;;;15.94;100.00
11343;BME280;5726;42.160;24.746;2022-11-20T03:18:41;98915.13;;;15.91;100.00
11343;BME280;5726;42.160;24.746;2022-11-20T03:21:08;98899.81;;;16.07;100.00
11343;BME280;5726;42.160;24.746;2022-11-20T03:23:35;98901.81;;;15.75;100.00
11343;BME280;5726;42.160;24.746;2022-11-20T03:26:19;98886.28;;;15.72;100.00
11343;BME280;5726;42.160;24.746;2022-11-20T03:28:50;98877.06;;;15.73;100.00
11343;BME280;5726;42.160;24.746;2022-11-20T03:31:16;98878.94;;;15.72;100.00
11343;BME280;5726;42.160;24.746;2022-11-20T03:33:43;98884.38;;;16.08;100.00
11343;BME280;5726;42.160;24.746;2022-11-20T03:36:11;98895.31;;;16.11;100.00
11343;BME280;5726;42.160;24.746;2022-11-20T03:38:37;98902.84;;;15.94;100.00
11343;BME280;5726;42.160;24.746;2022-11-20T03:41:09;98900.94;;;16.06;100.00
11343;BME280;5726;42.160;24.746;2022-11-20T03:43:34;98910.63;;;15.83;100.00
11343;BME280;5726;42.160;24.746;2022-11-20T03:46:00;98904.66;;;15.90;100.00
11343;BME280;5726;42.160;24.746;2022-11-20T03:48:27;98896.66;;;15.81;100.00
11343;BME280;5726;42.160;24.746;2022-11-20T03:50:53;98907.81;;;15.68;100.00
11343;BME280;5726;42.160;24.746;2022-11-20T03:53:31;98899.13;;;15.86;100.00
11343;BME280;5726;42.160;24.746;2022-11-20T03:55:56;98906.91;;;16.00;100.00
11343;BME280;5726;42.160;24.746;2022-11-20T03:58:21;98905.22;;;16.19;100.00
11343;BME280;5726;42.160;24.746;2022-11-20T04:00:47;98894.41;;;16.19;100.00
11343;BME280;5726;42.160;24.746;2022-11-20T04:03:12;98895.75;;;15.77;100.00
11343;BME280;5726;42.160;24.746;2022-11-20T04:05:38;98907.44;;;15.58;100.00
11343;BME280;5726;42.160;24.746;2022-11-20T04:08:03;98905.00;;;16.12;100.00
11343;BME280;5726;42.160;24.746;2022-11-20T04:10:29;98903.28;;;16.20;100.00
11343;BME280;5726;42.160;24.746;2022-11-20T04:12:54;98909.66;;;16.24;100.00
11343;BME280;5726;42.160;24.746;2022-11-20T04:15:19;98911.66;;;16.03;100.00
11343;BME280;5726;42.160;24.746;2022-11-20T04:17:45;98908.50;;;16.13;100.00
11343;BME280;5726;42.160;24.746;2022-11-20T04:20:10;98909.50;;;15.96;100.00
11343;BME280;5726;42.160;24.746;2022-11-20T04:22:36;98905.47;;;16.02;100.00
11343;BME280;5726;42.160;24.746;2022-11-20T04:25:01;98911.22;;;16.13;100.00
11343;BME280;5726;42.160;24.746;2022-11-20T04:27:26;98913.69;;;16.06;100.00
11343;BME280;5726;42.160;24.746;2022-11-20T04:29:52;98915.38;;;15.98;100.00
11343;BME280;5726;42.160;24.746;2022-11-20T04:32:17;98913.91;;;15.89;100.00
11343;BME280;5726;42.160;24.746;2022-11-20T04:34:43;98925.59;;;15.81;100.00
11343;BME280;5726;42.160;24.746;2022-11-20T04:37:08;98911.66;;;16.15;100.00
11343;BME280;5726;42.160;24.746;2022-11-20T04:39:33;98905.66;;;16.21;100.00
11343;BME280;5726;42.160;24.746;2022-11-20T04:41:59;98903.91;;;16.25;100.00
11343;BME280;5726;42.160;24.746;2022-11-20T04:44:43;98914.94;;;16.44;100.00
11343;BME280;5726;42.160;24.746;2022-11-20T04:47:08;98911.41;;;16.08;100.00
11343;BME280;5726;42.160;24.746;2022-11-20T04:49:33;98915.16;;;16.39;100.00
11343;BME280;5726;42.160;24.746;2022-11-20T04:51:59;98910.75;;;16.46;100.00
11343;BME280;5726;42.160;24.746;2022-11-20T04:54:24;98908.53;;;16.36;100.00
11343;BME280;5726;42.160;24.746;2022-11-20T04:56:50;98911.31;;;16.52;100.00
11343;BME280;5726;42.160;24.746;2022-11-20T04:59:16;98912.31;;;16.59;100.00
11343;BME280;5726;42.160;24.746;2022-11-20T05:01:41;98915.66;;;16.68;100.00
11343;BME280;5726;42.160;24.746;2022-11-20T05:04:07;98908.53;;;16.75;100.00
11343;BME280;5726;42.160;24.746;2022-11-20T05:06:32;98915.09;;;16.74;100.00
11343;BME280;5726;42.160;24.746;2022-11-20T05:08:58;98897.88;;;16.43;100.00
11343;BME280;5726;42.160;24.746;2022-11-20T05:11:24;98888.91;;;16.78;100.00
11343;BME280;5726;42.160;24.746;2022-11-20T05:13:51;98904.22;;;16.86;100.00
11343;BME280;5726;42.160;24.746;2022-11-20T05:16:21;98918.69;;;16.78;100.00
11343;BME280;5726;42.160;24.746;2022-11-20T05:18:48;98935.53;;;16.60;100.00
11343;BME280;5726;42.160;24.746;2022-11-20T05:21:14;98930.84;;;16.84;100.00
11343;BME280;5726;42.160;24.746;2022-11-20T05:23:40;98921.41;;;16.78;100.00
11343;BME280;5726;42.160;24.746;2022-11-20T05:26:08;98928.88;;;16.58;100.00
11343;BME280;5726;42.160;24.746;2022-11-20T05:28:37;98931.81;;;16.65;100.00
11343;BME280;5726;42.160;24.746;2022-11-20T05:31:14;98928.84;;;16.81;100.00
11343;BME280;5726;42.160;24.746;2022-11-20T05:33:41;98918.19;;;17.00;100.00
11343;BME280;5726;42.160;24.746;2022-11-20T05:36:07;98913.97;;;17.42;100.00
11343;BME280;5726;42.160;24.746;2022-11-20T05:38:33;98922.19;;;17.61;100.00
11343;BME280;5726;42.160;24.746;2022-11-20T05:41:05;98929.28;;;17.50;100.00
11343;BME280;5726;42.160;24.746;2022-11-20T05:43:35;98919.78;;;17.28;100.00
11343;BME280;5726;42.160;24.746;2022-11-20T05:46:02;98923.06;;;17.49;100.00
11343;BME280;5726;42.160;24.746;2022-11-20T05:48:28;98927.44;;;17.54;100.00
11343;BME280;5726;42.160;24.746;2022-11-20T05:50:54;98921.63;;;17.40;100.00
11343;BME280;5726;42.160;24.746;2022-11-20T05:53:19;98931.50;;;17.32;100.00
11343;BME280;5726;42.160;24.746;2022-11-20T05:55:45;98933.78;;;17.46;100.00
11343;BME280;5726;42.160;24.746;2022-11-20T05:58:10;98932.75;;;17.50;100.00
11343;BME280;5726;42.160;24.746;2022-11-20T06:00:36;98932.59;;;17.43;100.00
11343;BME280;5726;42.160;24.746;2022-11-20T06:03:02;98928.50;;;17.10;100.00
11343;BME280;5726;42.160;24.746;2022-11-20T06:05:27;98932.78;;;17.23;100.00
11343;BME280;5726;42.160;24.746;2022-11-20T06:07:52;98936.50;;;17.46;100.00
11343;BME280;5726;42.160;24.746;2022-11-20T06:10:18;98952.31;;;17.28;100.00
11343;BME280;5726;42.160;24.746;2022-11-20T06:12:43;98945.66;;;17.14;100.00
11343;BME280;5726;42.160;24.746;2022-11-20T06:15:09;98934.25;;;17.21;100.00
11343;BME280;5726;42.160;24.746;2022-11-20T06:17:35;98943.13;;;17.33;100.00
11343;BME280;5726;42.160;24.746;2022-11-20T06:20:00;98956.03;;;17.51;100.00
11343;BME280;5726;42.160;24.746;2022-11-20T06:22:26;98958.19;;;17.46;100.00
11343;BME280;5726;42.160;24.746;2022-11-20T06:24:51;98944.31;;;17.08;100.00
11343;BME280;5726;42.160;24.746;2022-11-20T06:27:16;98946.81;;;17.01;100.00
11343;BME280;5726;42.160;24.746;2022-11-20T06:29:42;98952.88;;;17.10;100.00
11343;BME280;5726;42.160;24.746;2022-11-20T06:32:07;98977.59;;;17.21;100.00
11343;BME280;5726;42.160;24.746;2022-11-20T06:34:33;98969.34;;;17.17;100.00
11343;BME280;5726;42.160;24.746;2022-11-20T06:36:58;98966.03;;;16.96;100.00
11343;BME280;5726;42.160;24.746;2022-11-20T06:39:23;98980.97;;;16.78;100.00
11343;BME280;5726;42.160;24.746;2022-11-20T06:41:49;98962.84;;;17.06;100.00
11343;BME280;5726;42.160;24.746;2022-11-20T06:44:14;98972.25;;;17.36;100.00
11343;BME280;5726;42.160;24.746;2022-11-20T06:46:40;98957.09;;;17.62;100.00
11343;BME280;5726;42.160;24.746;2022-11-20T06:49:07;98980.03;;;17.65;100.00
11343;BME280;5726;42.160;24.746;2022-11-20T06:51:33;98965.69;;;17.79;100.00
11343;BME280;5726;42.160;24.746;2022-11-20T07:00:44;98969.88;;;17.77;100.00
11343;BME280;5726;42.160;24.746;2022-11-20T07:03:11;98988.66;;;17.55;100.00
11343;BME280;5726;42.160;24.746;2022-11-20T07:06:13;98976.47;;;17.49;100.00
11343;BME280;5726;42.160;24.746;2022-11-20T07:08:40;98963.38;;;17.23;100.00
11343;BME280;5726;42.160;24.746;2022-11-20T07:11:06;98969.72;;;17.43;100.00
11343;BME280;5726;42.160;24.746;2022-11-20T07:13:32;98970.00;;;17.53;100.00
11343;BME280;5726;42.160;24.746;2022-11-20T07:16:03;98968.53;;;17.98;100.00
11343;BME280;5726;42.160;24.746;2022-11-20T07:18:29;98968.53;;;17.56;100.00
11343;BME280;5726;42.160;24.746;2022-11-20T07:20:54;98985.69;;;17.60;100.00
11343;BME280;5726;42.160;24.746;2022-11-20T07:23:20;98993.94;;;17.78;100.00
11343;BME280;5726;42.160;24.746;2022-11-20T07:25:45;98983.09;;;17.78;100.00
11343;BME280;5726;42.160;24.746;2022-11-20T07:28:11;98973.13;;;17.82;100.00
11343;BME280;5726;42.160;24.746;2022-11-20T07:30:36;98968.69;;;17.90;100.00
11343;BME280;5726;42.160;24.746;2022-11-20T07:33:02;98981.28;;;17.82;100.00
11343;BME280;5726;42.160;24.746;2022-11-20T07:35:27;98977.38;;;17.95;100.00
11343;BME280;5726;42.160;24.746;2022-11-20T07:37:52;98978.06;;;17.92;100.00
11343;BME280;5726;42.160;24.746;2022-11-20T07:40:18;98991.84;;;17.87;100.00
11343;BME280;5726;42.160;24.746;2022-11-20T07:42:51;98993.81;;;18.02;100.00
11343;BME280;5726;42.160;24.746;2022-11-20T07:45:22;98999.56;;;17.85;100.00
11343;BME280;5726;42.160;24.746;2022-11-20T07:47:48;99004.22;;;17.85;100.00
11343;BME280;5726;42.160;24.746;2022-11-20T07:50:14;98995.00;;;17.74;100.00
11343;BME280;5726;42.160;24.746;2022-11-20T07:52:40;98991.28;;;17.67;100.00
11343;BME280;5726;42.160;24.746;2022-11-20T07:55:06;98993.59;;;17.80;100.00
11343;BME280;5726;42.160;24.746;2022-11-20T07:57:32;98997.97;;;17.84;100.00
11343;BME280;5726;42.160;24.746;2022-11-20T07:59:57;98989.41;;;17.82;100.00
11343;BME280;5726;42.160;24.746;2022-11-20T08:02:23;98983.06;;;17.48;100.00
11343;BME280;5726;42.160;24.746;2022-11-20T08:04:48;98978.75;;;17.47;100.00
11343;BME280;5726;42.160;24.746;2022-11-20T08:07:29;98966.72;;;17.60;100.00
11343;BME280;5726;42.160;24.746;2022-11-20T08:10:07;98977.81;;;17.55;100.00
11343;BME280;5726;42.160;24.746;2022-11-20T08:12:49;98982.03;;;17.68;100.00
11343;BME280;5726;42.160;24.746;2022-11-20T08:15:48;99002.63;;;17.84;100.00
11343;BME280;5726;42.160;24.746;2022-11-20T08:18:13;99011.53;;;17.84;100.00
11343;BME280;5726;42.160;24.746;2022-11-20T08:20:39;99004.28;;;17.73;100.00
11343;BME280;5726;42.160;24.746;2022-11-20T08:23:05;98981.72;;;17.84;100.00
11343;BME280;5726;42.160;24.746;2022-11-20T08:25:33;98974.72;;;17.83;100.00
11343;BME280;5726;42.160;24.746;2022-11-20T08:28:00;98976.13;;;17.93;100.00
11343;BME280;5726;42.160;24.746;2022-11-20T08:30:26;98982.34;;;17.93;100.00
11343;BME280;5726;42.160;24.746;2022-11-20T08:32:52;98987.06;;;17.96;100.00
11343;BME280;5726;42.160;24.746;2022-11-20T08:35:17;98975.09;;;17.97;100.00
11343;BME280;5726;42.160;24.746;2022-11-20T08:37:46;98975.44;;;18.11;100.00
11343;BME280;5726;42.160;24.746;2022-11-20T08:40:11;98965.94;;;18.32;100.00
11343;BME280;5726;42.160;24.746;2022-11-20T08:42:37;98956.03;;;18.40;100.00
11343;BME280;5726;42.160;24.746;2022-11-20T08:45:03;98960.56;;;18.36;100.00
11343;BME280;5726;42.160;24.746;2022-11-20T08:47:29;98961.78;;;18.54;100.00
11343;BME280;5726;42.160;24.746;2022-11-20T08:49:55;98968.16;;;18.61;100.00
11343;BME280;5726;42.160;24.746;2022-11-20T08:52:20;98967.88;;;19.00;100.00
11343;BME280;5726;42.160;24.746;2022-11-20T08:54:45;98975.25;;;18.66;100.00
11343;BME280;5726;42.160;24.746;2022-11-20T08:57:11;98973.72;;;18.83;100.00
11343;BME280;5726;42.160;24.746;2022-11-20T08:59:37;98965.28;;;19.22;100.00
11343;BME280;5726;42.160;24.746;2022-11-20T09:02:02;98962.50;;;19.38;100.00
11343;BME280;5726;42.160;24.746;2022-11-20T09:04:28;98966.34;;;19.37;100.00
11343;BME280;5726;42.160;24.746;2022-11-20T09:06:53;98966.78;;;19.39;100.00
11343;BME280;5726;42.160;24.746;2022-11-20T09:09:19;98965.34;;;19.45;100.00
11343;BME280;5726;42.160;24.746;2022-11-20T09:11:44;98959.84;;;19.82;100.00
11343;BME280;5726;42.160;24.746;2022-11-20T09:14:10;98959.94;;;20.30;100.00
11343;BME280;5726;42.160;24.746;2022-11-20T09:16:35;98964.69;;;20.37;100.00
11343;BME280;5726;42.160;24.746;2022-11-20T09:19:01;98954.47;;;20.53;100.00
11343;BME280;5726;42.160;24.746;2022-11-20T09:21:26;98951.72;;;20.53;100.00
11343;BME280;5726;42.160;24.746;2022-11-20T09:23:51;98942.59;;;20.42;100.00
11343;BME280;5726;42.160;24.746;2022-11-20T09:26:17;98935.97;;;20.39;100.00
11343;BME280;5726;42.160;24.746;2022-11-20T09:28:42;98943.06;;;20.21;100.00
11343;BME280;5726;42.160;24.746;2022-11-20T09:31:11;98928.88;;;20.35;100.00
11343;BME280;5726;42.160;24.746;2022-11-20T09:33:42;98927.59;;;20.51;100.00
11343;BME280;5726;42.160;24.746;2022-11-20T09:36:08;98920.28;;;20.33;100.00
11343;BME280;5726;42.160;24.746;2022-11-20T09:38:33;98913.28;;;20.58;100.00
11343;BME280;5726;42.160;24.746;2022-11-20T09:41:06;98920.28;;;20.84;100.00
11343;BME280;5726;42.160;24.746;2022-11-20T09:49:25;98899.47;;;20.99;100.00
11343;BME280;5726;42.160;24.746;2022-11-20T09:54:33;98890.84;;;21.26;100.00
11343;BME280;5726;42.160;24.746;2022-11-20T09:57:03;98874.97;;;21.38;100.00
11343;BME280;5726;42.160;24.746;2022-11-20T09:59:40;98876.72;;;21.53;100.00
11343;BME280;5726;42.160;24.746;2022-11-20T10:02:27;98872.59;;;21.69;100.00
11343;BME280;5726;42.160;24.746;2022-11-20T10:08:29;98904.94;;;21.67;100.00
11343;BME280;5726;42.160;24.746;2022-11-20T10:17:05;98874.19;;;21.70;100.00
11343;BME280;5726;42.160;24.746;2022-11-20T10:29:40;98876.34;;;21.94;100.00
11343;BME280;5726;42.160;24.746;2022-11-20T10:32:14;98871.53;;;21.77;100.00
11343;BME280;5726;42.160;24.746;2022-11-20T10:34:48;98876.16;;;21.73;100.00
11343;BME280;5726;42.160;24.746;2022-11-20T10:37:26;98863.63;;;21.69;100.00
11343;BME280;5726;42.160;24.746;2022-11-20T10:42:43;98855.44;;;21.65;100.00
11343;BME280;5726;42.160;24.746;2022-11-20T10:45:19;98855.16;;;21.77;100.00
11343;BME280;5726;42.160;24.746;2022-11-20T10:47:47;98853.41;;;21.59;100.00
11343;BME280;5726;42.160;24.746;2022-11-20T10:50:18;98845.44;;;21.44;100.00
11343;BME280;5726;42.160;24.746;2022-11-20T10:53:14;98844.56;;;21.33;100.00
11343;BME280;5726;42.160;24.746;2022-11-20T10:55:54;98835.19;;;21.34;100.00
11343;BME280;5726;42.160;24.746;2022-11-20T11:01:11;98832.16;;;21.42;100.00
11343;BME280;5726;42.160;24.746;2022-11-20T11:03:38;98836.19;;;21.52;100.00
11343;BME280;5726;42.160;24.746;2022-11-20T11:06:07;98834.69;;;21.58;100.00
11343;BME280;5726;42.160;24.746;2022-11-20T11:08:38;98824.19;;;21.60;100.00
11343;BME280;5726;42.160;24.746;2022-11-20T11:11:15;98831.53;;;21.52;100.00
11343;BME280;5726;42.160;24.746;2022-11-20T11:13:43;98824.88;;;21.53;100.00
11343;BME280;5726;42.160;24.746;2022-11-20T11:16:23;98815.28;;;21.69;100.00
11343;BME280;5726;42.160;24.746;2022-11-20T11:18:49;98809.06;;;21.72;100.00
11343;BME280;5726;42.160;24.746;2022-11-20T11:21:21;98809.53;;;21.78;100.00
11343;BME280;5726;42.160;24.746;2022-11-20T11:23:57;98793.91;;;21.78;100.00
11343;BME280;5726;42.160;24.746;2022-11-20T11:26:24;98799.09;;;21.90;100.00
11343;BME280;5726;42.160;24.746;2022-11-20T11:29:02;98799.44;;;21.85;100.00
11343;BME280;5726;42.160;24.746;2022-11-20T11:31:32;98794.03;;;21.46;100.00
11343;BME280;5726;42.160;24.746;2022-11-20T11:34:11;98790.63;;;21.56;100.00
11343;BME280;5726;42.160;24.746;2022-11-20T11:36:38;98792.03;;;21.43;100.00
11343;BME280;5726;42.160;24.746;2022-11-20T11:39:06;98804.19;;;21.49;100.00
11343;BME280;5726;42.160;24.746;2022-11-20T11:41:36;98787.91;;;21.59;100.00
11343;BME280;5726;42.160;24.746;2022-11-20T11:44:20;98786.50;;;21.75;100.00
11343;BME280;5726;42.160;24.746;2022-11-20T11:47:09;98792.69;;;21.69;100.00
11343;BME280;5726;42.160;24.746;2022-11-20T11:49:43;98797.19;;;21.48;100.00
11343;BME280;5726;42.160;24.746;2022-11-20T11:52:15;98804.28;;;21.56;100.00
11343;BME280;5726;42.160;24.746;2022-11-20T11:54:58;98794.56;;;21.61;100.00
11343;BME280;5726;42.160;24.746;2022-11-20T11:57:39;98806.69;;;21.64;100.00
11343;BME280;5726;42.160;24.746;2022-11-20T12:00:09;98797.38;;;21.68;100.00
11343;BME280;5726;42.160;24.746;2022-11-20T12:02:52;98809.88;;;21.73;100.00
11343;BME280;5726;42.160;24.746;2022-11-20T12:05:34;98794.59;;;22.18;100.00
11343;BME280;5726;42.160;24.746;2022-11-20T12:10:43;98799.22;;;22.11;100.00
11343;BME280;5726;42.160;24.746;2022-11-20T12:13:30;98784.34;;;21.98;100.00
11343;BME280;5726;42.160;24.746;2022-11-20T12:15:58;98785.94;;;22.06;100.00
11343;BME280;5726;42.160;24.746;2022-11-20T12:18:23;98788.22;;;21.97;100.00
11343;BME280;5726;42.160;24.746;2022-11-20T12:26:42;98772.72;;;22.11;100.00
11343;BME280;5726;42.160;24.746;2022-11-20T12:37:04;98779.72;;;22.06;100.00
11343;BME280;5726;42.160;24.746;2022-11-20T12:39:48;98771.31;;;21.78;100.00
11343;BME280;5726;42.160;24.746;2022-11-20T12:45:54;98763.25;;;21.95;100.00
11343;BME280;5726;42.160;24.746;2022-11-20T12:51:24;98764.81;;;21.96;100.00
11343;BME280;5726;42.160;24.746;2022-11-20T12:54:18;98751.69;;;22.19;100.00
11343;BME280;5726;42.160;24.746;2022-11-20T12:57:14;98768.34;;;22.00;100.00
11343;BME280;5726;42.160;24.746;2022-11-20T13:07:40;98761.28;;;21.92;100.00
11343;BME280;5726;42.160;24.746;2022-11-20T13:10:16;98769.81;;;21.87;100.00
11343;BME280;5726;42.160;24.746;2022-11-20T13:12:54;98777.22;;;21.87;100.00
11343;BME280;5726;42.160;24.746;2022-11-20T13:18:03;98781.22;;;22.00;100.00
11343;BME280;5726;42.160;24.746;2022-11-20T13:20:30;98782.38;;;21.95;100.00
11343;BME280;5726;42.160;24.746;2022-11-20T13:22:57;98786.91;;;22.31;100.00
11343;BME280;5726;42.160;24.746;2022-11-20T13:25:28;98783.22;;;22.09;100.00
11343;BME280;5726;42.160;24.746;2022-11-20T13:27:55;98783.38;;;21.77;100.00
11343;BME280;5726;42.160;24.746;2022-11-20T13:30:26;98784.13;;;21.70;100.00
11343;BME280;5726;42.160;24.746;2022-11-20T13:33:43;98790.19;;;22.00;100.00
11343;BME280;5726;42.160;24.746;2022-11-20T13:35:42;98800.56;;;22.31;71.57
11343;BME280;5726;42.160;24.746;2022-11-20T13:38:10;98798.66;;;22.38;69.70
11343;BME280;5726;42.160;24.746;2022-11-20T13:40:38;98808.72;;;22.24;70.55
11343;BME280;5726;42.160;24.746;2022-11-20T13:43:19;98807.69;;;22.46;69.95
11343;BME280;5726;42.160;24.746;2022-11-20T13:46:00;98802.94;;;22.36;69.86
11343;BME280;5726;42.160;24.746;2022-11-20T13:48:31;98808.03;;;22.41;71.18
11343;BME280;5726;42.160;24.746;2022-11-20T13:56:45;98818.34;;;22.11;71.10
11343;BME280;5726;42.160;24.746;2022-11-20T14:02:20;98830.75;;;22.02;73.87
11343;BME280;5726;42.160;24.746;2022-11-20T14:05:24;98851.97;;;21.72;79.04
11343;BME280;5726;42.160;24.746;2022-11-20T14:08:37;98840.59;;;21.27;84.01
11343;BME280;5726;42.160;24.746;2022-11-20T14:11:36;98838.03;;;20.75;87.28
11343;BME280;5726;42.160;24.746;2022-11-20T14:14:30;98847.06;;;20.54;87.45
11343;BME280;5726;42.160;24.746;2022-11-20T14:17:36;98833.16;;;20.33;86.06
11343;BME280;5726;42.160;24.746;2022-11-20T14:20:20;98829.63;;;20.03;85.60
11343;BME280;5726;42.160;24.746;2022-11-20T14:22:51;98832.63;;;19.98;84.85
11343;BME280;5726;42.160;24.746;2022-11-20T14:27:44;98815.78;;;19.89;85.45
11343;BME280;5726;42.160;24.746;2022-11-20T14:30:18;98830.44;;;20.07;83.25
11343;BME280;5726;42.160;24.746;2022-11-20T14:32:45;98833.31;;;19.92;83.32
11343;BME280;5726;42.160;24.746;2022-11-20T14:35:20;98838.03;;;19.95;82.88